sensor_id;sensor_type;location;lat;lon;timestamp;P1;durP1;ratioP1;P2;durP2;ratioP2
8540;SDS011;4308;51.294;6.590;2023-06-05T00:00:11;5.60;;;2.43;;
8540;SDS011;4308;51.294;6.590;2023-06-05T00:02:39;7.33;;;3.10;;
8540;SDS011;4308;51.294;6.590;2023-06-05T00:05:07;7.80;;;2.80;;
8540;SDS011;4308;51.294;6.590;2023-06-05T00:07:35;5.47;;;2.33;;
8540;SDS011;4308;51.294;6.590;2023-06-05T00:10:03;4.37;;;3.00;;
8540;SDS011;4308;51.294;6.590;2023-06-05T00:12:31;4.80;;;3.00;;
8540;SDS011;4308;51.294;6.590;2023-06-05T00:14:59;10.23;;;3.40;;
8540;SDS011;4308;51.294;6.590;2023-06-05T00:17:26;5.80;;;2.63;;
8540;SDS011;4308;51.294;6.590;2023-06-05T00:19:54;7.70;;;3.10;;
8540;SDS011;4308;51.294;6.590;2023-06-05T00:22:22;4.87;;;2.67;;
8540;SDS011;4308;51.294;6.590;2023-06-05T00:24:49;3.90;;;2.93;;
8540;SDS011;4308;51.294;6.590;2023-06-05T00:27:17;3.93;;;2.50;;
8540;SDS011;4308;51.294;6.590;2023-06-05T00:29:45;6.00;;;3.10;;
8540;SDS011;4308;51.294;6.590;2023-06-05T00:32:12;3.70;;;2.57;;
8540;SDS011;4308;51.294;6.590;2023-06-05T00:34:40;8.83;;;3.07;;
8540;SDS011;4308;51.294;6.590;2023-06-05T00:37:08;4.00;;;2.47;;
8540;SDS011;4308;51.294;6.590;2023-06-05T00:39:35;4.00;;;2.53;;
8540;SDS011;4308;51.294;6.590;2023-06-05T00:42:03;4.23;;;2.77;;
8540;SDS011;4308;51.294;6.590;2023-06-05T00:44:31;7.47;;;3.60;;
8540;SDS011;4308;51.294;6.590;2023-06-05T00:46:58;4.27;;;2.63;;
8540;SDS011;4308;51.294;6.590;2023-06-05T00:49:26;7.60;;;2.20;;
8540;SDS011;4308;51.294;6.590;2023-06-05T00:51:54;4.50;;;3.00;;
8540;SDS011;4308;51.294;6.590;2023-06-05T00:54:21;8.03;;;3.07;;
8540;SDS011;4308;51.294;6.590;2023-06-05T00:56:49;5.40;;;2.90;;
8540;SDS011;4308;51.294;6.590;2023-06-05T00:59:20;6.33;;;3.47;;
8540;SDS011;4308;51.294;6.590;2023-06-05T01:01:47;8.50;;;2.80;;
8540;SDS011;4308;51.294;6.590;2023-06-05T01:04:15;5.90;;;2.40;;
8540;SDS011;4308;51.294;6.590;2023-06-05T01:06:43;6.30;;;3.23;;
8540;SDS011;4308;51.294;6.590;2023-06-05T01:09:10;9.53;;;3.00;;
8540;SDS011;4308;51.294;6.590;2023-06-05T01:11:40;4.43;;;2.53;;
8540;SDS011;4308;51.294;6.590;2023-06-05T01:14:22;5.80;;;3.20;;
8540;SDS011;4308;51.294;6.590;2023-06-05T01:16:51;6.50;;;2.70;;
8540;SDS011;4308;51.294;6.590;2023-06-05T01:19:19;5.20;;;3.30;;
8540;SDS011;4308;51.294;6.590;2023-06-05T01:21:47;5.67;;;2.37;;
8540;SDS011;4308;51.294;6.590;2023-06-05T01:24:15;6.53;;;3.10;;
8540;SDS011;4308;51.294;6.590;2023-06-05T01:26:45;6.73;;;3.20;;
8540;SDS011;4308;51.294;6.590;2023-06-05T01:29:15;4.83;;;3.07;;
8540;SDS011;4308;51.294;6.590;2023-06-05T01:31:43;8.07;;;3.27;;
8540;SDS011;4308;51.294;6.590;2023-06-05T01:34:12;6.87;;;2.87;;
8540;SDS011;4308;51.294;6.590;2023-06-05T01:36:41;8.17;;;3.20;;
8540;SDS011;4308;51.294;6.590;2023-06-05T01:39:09;7.30;;;3.33;;
8540;SDS011;4308;51.294;6.590;2023-06-05T01:41:37;6.97;;;3.20;;
8540;SDS011;4308;51.294;6.590;2023-06-05T01:44:06;6.43;;;3.20;;
8540;SDS011;4308;51.294;6.590;2023-06-05T01:46:34;6.57;;;3.17;;
8540;SDS011;4308;51.294;6.590;2023-06-05T01:49:02;4.83;;;3.10;;
8540;SDS011;4308;51.294;6.590;2023-06-05T01:51:30;6.40;;;3.07;;
8540;SDS011;4308;51.294;6.590;2023-06-05T01:53:57;4.23;;;2.60;;
8540;SDS011;4308;51.294;6.590;2023-06-05T01:56:25;8.13;;;3.70;;
8540;SDS011;4308;51.294;6.590;2023-06-05T01:58:53;4.47;;;2.67;;
8540;SDS011;4308;51.294;6.590;2023-06-05T02:01:20;7.47;;;2.83;;
8540;SDS011;4308;51.294;6.590;2023-06-05T02:03:48;4.13;;;2.70;;
8540;SDS011;4308;51.294;6.590;2023-06-05T02:06:16;5.53;;;3.47;;
8540;SDS011;4308;51.294;6.590;2023-06-05T02:08:44;6.30;;;3.20;;
8540;SDS011;4308;51.294;6.590;2023-06-05T02:11:11;5.33;;;2.60;;
8540;SDS011;4308;51.294;6.590;2023-06-05T02:13:39;6.93;;;3.53;;
8540;SDS011;4308;51.294;6.590;2023-06-05T02:16:09;3.07;;;2.70;;
8540;SDS011;4308;51.294;6.590;2023-06-05T02:18:36;9.80;;;3.20;;
8540;SDS011;4308;51.294;6.590;2023-06-05T02:21:04;4.07;;;2.33;;
8540;SDS011;4308;51.294;6.590;2023-06-05T02:23:32;4.93;;;2.60;;
8540;SDS011;4308;51.294;6.590;2023-06-05T02:26:00;7.33;;;3.47;;
8540;SDS011;4308;51.294;6.590;2023-06-05T02:28:27;7.10;;;2.83;;
8540;SDS011;4308;51.294;6.590;2023-06-05T02:30:55;3.37;;;2.50;;
8540;SDS011;4308;51.294;6.590;2023-06-05T02:33:22;5.47;;;2.87;;
8540;SDS011;4308;51.294;6.590;2023-06-05T02:35:50;6.07;;;3.03;;
8540;SDS011;4308;51.294;6.590;2023-06-05T02:38:18;6.13;;;2.40;;
8540;SDS011;4308;51.294;6.590;2023-06-05T02:40:45;10.60;;;4.03;;
8540;SDS011;4308;51.294;6.590;2023-06-05T02:43:13;11.17;;;2.63;;
8540;SDS011;4308;51.294;6.590;2023-06-05T02:45:40;3.80;;;2.57;;
8540;SDS011;4308;51.294;6.590;2023-06-05T02:48:08;5.70;;;2.97;;
8540;SDS011;4308;51.294;6.590;2023-06-05T02:50:36;5.03;;;3.00;;
8540;SDS011;4308;51.294;6.590;2023-06-05T02:53:03;4.63;;;3.00;;
8540;SDS011;4308;51.294;6.590;2023-06-05T02:55:31;7.07;;;2.70;;
8540;SDS011;4308;51.294;6.590;2023-06-05T02:57:59;6.77;;;3.77;;
8540;SDS011;4308;51.294;6.590;2023-06-05T03:00:26;5.87;;;3.20;;
8540;SDS011;4308;51.294;6.590;2023-06-05T03:02:54;3.87;;;2.70;;
8540;SDS011;4308;51.294;6.590;2023-06-05T03:05:21;10.07;;;3.30;;
8540;SDS011;4308;51.294;6.590;2023-06-05T03:07:49;9.23;;;3.20;;
8540;SDS011;4308;51.294;6.590;2023-06-05T03:10:17;9.10;;;3.83;;
8540;SDS011;4308;51.294;6.590;2023-06-05T03:12:44;5.97;;;3.33;;
8540;SDS011;4308;51.294;6.590;2023-06-05T03:15:12;7.83;;;3.70;;
8540;SDS011;4308;51.294;6.590;2023-06-05T03:17:40;8.03;;;3.57;;
8540;SDS011;4308;51.294;6.590;2023-06-05T03:20:08;7.57;;;3.40;;
8540;SDS011;4308;51.294;6.590;2023-06-05T03:22:35;7.73;;;3.97;;
8540;SDS011;4308;51.294;6.590;2023-06-05T03:25:03;5.53;;;3.17;;
8540;SDS011;4308;51.294;6.590;2023-06-05T03:27:31;10.37;;;4.10;;
8540;SDS011;4308;51.294;6.590;2023-06-05T03:29:58;8.17;;;4.20;;
8540;SDS011;4308;51.294;6.590;2023-06-05T03:32:26;6.43;;;3.30;;
8540;SDS011;4308;51.294;6.590;2023-06-05T03:34:54;4.87;;;3.20;;
8540;SDS011;4308;51.294;6.590;2023-06-05T03:37:21;6.00;;;4.10;;
8540;SDS011;4308;51.294;6.590;2023-06-05T03:39:49;10.73;;;4.40;;
8540;SDS011;4308;51.294;6.590;2023-06-05T03:42:16;5.03;;;2.80;;
8540;SDS011;4308;51.294;6.590;2023-06-05T03:44:44;8.50;;;4.13;;
8540;SDS011;4308;51.294;6.590;2023-06-05T03:47:12;9.83;;;3.93;;
8540;SDS011;4308;51.294;6.590;2023-06-05T03:49:39;5.57;;;3.63;;
8540;SDS011;4308;51.294;6.590;2023-06-05T03:52:07;4.47;;;3.50;;
8540;SDS011;4308;51.294;6.590;2023-06-05T03:54:34;9.97;;;4.50;;
8540;SDS011;4308;51.294;6.590;2023-06-05T03:57:02;7.30;;;4.10;;
8540;SDS011;4308;51.294;6.590;2023-06-05T03:59:29;6.57;;;3.97;;
8540;SDS011;4308;51.294;6.590;2023-06-05T04:01:57;7.97;;;3.40;;
8540;SDS011;4308;51.294;6.590;2023-06-05T04:04:25;6.70;;;4.10;;
8540;SDS011;4308;51.294;6.590;2023-06-05T04:06:55;8.63;;;4.47;;
8540;SDS011;4308;51.294;6.590;2023-06-05T04:09:23;8.30;;;3.93;;
8540;SDS011;4308;51.294;6.590;2023-06-05T04:11:50;5.20;;;3.87;;
8540;SDS011;4308;51.294;6.590;2023-06-05T04:14:18;7.27;;;4.10;;
8540;SDS011;4308;51.294;6.590;2023-06-05T04:16:46;7.37;;;4.20;;
8540;SDS011;4308;51.294;6.590;2023-06-05T04:19:13;6.23;;;3.73;;
8540;SDS011;4308;51.294;6.590;2023-06-05T04:21:41;5.93;;;3.97;;
8540;SDS011;4308;51.294;6.590;2023-06-05T04:24:09;6.27;;;3.90;;
8540;SDS011;4308;51.294;6.590;2023-06-05T04:26:37;6.63;;;3.87;;
8540;SDS011;4308;51.294;6.590;2023-06-05T04:29:05;8.50;;;4.27;;
8540;SDS011;4308;51.294;6.590;2023-06-05T04:31:32;8.27;;;4.37;;
8540;SDS011;4308;51.294;6.590;2023-06-05T04:34:00;6.00;;;4.50;;
8540;SDS011;4308;51.294;6.590;2023-06-05T04:36:28;6.47;;;3.43;;
8540;SDS011;4308;51.294;6.590;2023-06-05T04:38:55;10.27;;;4.53;;
8540;SDS011;4308;51.294;6.590;2023-06-05T04:41:23;7.13;;;4.20;;
8540;SDS011;4308;51.294;6.590;2023-06-05T04:43:50;6.73;;;4.20;;
8540;SDS011;4308;51.294;6.590;2023-06-05T04:46:18;10.73;;;3.87;;
8540;SDS011;4308;51.294;6.590;2023-06-05T04:48:46;9.93;;;4.87;;
8540;SDS011;4308;51.294;6.590;2023-06-05T04:51:13;5.07;;;4.40;;
8540;SDS011;4308;51.294;6.590;2023-06-05T04:53:41;11.07;;;4.40;;
8540;SDS011;4308;51.294;6.590;2023-06-05T04:56:08;7.77;;;3.67;;
8540;SDS011;4308;51.294;6.590;2023-06-05T04:58:36;9.00;;;4.47;;
8540;SDS011;4308;51.294;6.590;2023-06-05T05:01:04;7.03;;;4.10;;
8540;SDS011;4308;51.294;6.590;2023-06-05T05:03:32;4.93;;;3.87;;
8540;SDS011;4308;51.294;6.590;2023-06-05T05:05:59;11.27;;;5.33;;
8540;SDS011;4308;51.294;6.590;2023-06-05T05:08:27;11.90;;;5.27;;
8540;SDS011;4308;51.294;6.590;2023-06-05T05:10:55;11.33;;;4.87;;
8540;SDS011;4308;51.294;6.590;2023-06-05T05:13:22;7.83;;;4.40;;
8540;SDS011;4308;51.294;6.590;2023-06-05T05:15:50;8.20;;;4.57;;
8540;SDS011;4308;51.294;6.590;2023-06-05T05:18:19;7.80;;;4.60;;
8540;SDS011;4308;51.294;6.590;2023-06-05T05:20:47;8.97;;;5.00;;
8540;SDS011;4308;51.294;6.590;2023-06-05T05:23:14;6.27;;;4.00;;
8540;SDS011;4308;51.294;6.590;2023-06-05T05:25:44;7.30;;;5.20;;
8540;SDS011;4308;51.294;6.590;2023-06-05T05:28:12;6.47;;;4.23;;
8540;SDS011;4308;51.294;6.590;2023-06-05T05:30:39;10.50;;;4.80;;
8540;SDS011;4308;51.294;6.590;2023-06-05T05:33:07;5.73;;;4.57;;
8540;SDS011;4308;51.294;6.590;2023-06-05T05:35:35;6.07;;;4.13;;
8540;SDS011;4308;51.294;6.590;2023-06-05T05:38:02;9.33;;;5.10;;
8540;SDS011;4308;51.294;6.590;2023-06-05T05:40:30;12.27;;;5.70;;
8540;SDS011;4308;51.294;6.590;2023-06-05T05:42:57;8.87;;;4.90;;
8540;SDS011;4308;51.294;6.590;2023-06-05T05:45:25;9.03;;;5.10;;
8540;SDS011;4308;51.294;6.590;2023-06-05T05:47:53;10.17;;;4.73;;
8540;SDS011;4308;51.294;6.590;2023-06-05T05:50:20;6.87;;;5.17;;
8540;SDS011;4308;51.294;6.590;2023-06-05T05:52:48;8.20;;;4.97;;
8540;SDS011;4308;51.294;6.590;2023-06-05T05:55:15;11.67;;;5.07;;
8540;SDS011;4308;51.294;6.590;2023-06-05T05:57:43;8.13;;;5.37;;
8540;SDS011;4308;51.294;6.590;2023-06-05T06:00:11;9.33;;;4.90;;
8540;SDS011;4308;51.294;6.590;2023-06-05T06:02:39;8.37;;;4.63;;
8540;SDS011;4308;51.294;6.590;2023-06-05T06:05:07;6.97;;;3.73;;
8540;SDS011;4308;51.294;6.590;2023-06-05T06:07:37;5.97;;;4.90;;
8540;SDS011;4308;51.294;6.590;2023-06-05T06:10:05;10.37;;;5.43;;
8540;SDS011;4308;51.294;6.590;2023-06-05T06:12:33;8.63;;;5.53;;
8540;SDS011;4308;51.294;6.590;2023-06-05T06:15:01;6.07;;;4.07;;
8540;SDS011;4308;51.294;6.590;2023-06-05T06:17:28;8.27;;;5.20;;
8540;SDS011;4308;51.294;6.590;2023-06-05T06:19:56;8.10;;;5.27;;
8540;SDS011;4308;51.294;6.590;2023-06-05T06:22:23;10.47;;;5.73;;
8540;SDS011;4308;51.294;6.590;2023-06-05T06:24:51;7.70;;;4.83;;
8540;SDS011;4308;51.294;6.590;2023-06-05T06:27:19;8.83;;;5.47;;
8540;SDS011;4308;51.294;6.590;2023-06-05T06:30:01;9.83;;;5.27;;
8540;SDS011;4308;51.294;6.590;2023-06-05T06:32:29;10.63;;;5.47;;
8540;SDS011;4308;51.294;6.590;2023-06-05T06:34:56;9.73;;;4.63;;
8540;SDS011;4308;51.294;6.590;2023-06-05T06:37:24;11.83;;;4.70;;
8540;SDS011;4308;51.294;6.590;2023-06-05T06:39:52;10.63;;;6.20;;
8540;SDS011;4308;51.294;6.590;2023-06-05T06:42:19;11.60;;;6.33;;
8540;SDS011;4308;51.294;6.590;2023-06-05T06:44:47;9.07;;;6.03;;
8540;SDS011;4308;51.294;6.590;2023-06-05T06:47:14;10.87;;;5.80;;
8540;SDS011;4308;51.294;6.590;2023-06-05T06:49:42;9.23;;;5.63;;
8540;SDS011;4308;51.294;6.590;2023-06-05T06:52:10;13.03;;;6.03;;
8540;SDS011;4308;51.294;6.590;2023-06-05T06:54:37;10.13;;;6.30;;
8540;SDS011;4308;51.294;6.590;2023-06-05T06:57:05;12.50;;;7.00;;
8540;SDS011;4308;51.294;6.590;2023-06-05T06:59:32;10.77;;;6.23;;
8540;SDS011;4308;51.294;6.590;2023-06-05T07:02:13;11.67;;;7.03;;
8540;SDS011;4308;51.294;6.590;2023-06-05T07:04:42;13.37;;;6.90;;
8540;SDS011;4308;51.294;6.590;2023-06-05T07:07:10;14.43;;;7.53;;
8540;SDS011;4308;51.294;6.590;2023-06-05T07:09:38;11.90;;;7.03;;
8540;SDS011;4308;51.294;6.590;2023-06-05T07:12:07;14.77;;;7.80;;
8540;SDS011;4308;51.294;6.590;2023-06-05T07:14:35;15.20;;;7.73;;
8540;SDS011;4308;51.294;6.590;2023-06-05T07:17:04;11.10;;;6.60;;
8540;SDS011;4308;51.294;6.590;2023-06-05T07:19:32;9.73;;;7.30;;
8540;SDS011;4308;51.294;6.590;2023-06-05T07:22:00;11.53;;;7.53;;
8540;SDS011;4308;51.294;6.590;2023-06-05T07:24:28;15.63;;;8.00;;
8540;SDS011;4308;51.294;6.590;2023-06-05T07:26:57;15.80;;;6.90;;
8540;SDS011;4308;51.294;6.590;2023-06-05T07:29:24;13.00;;;6.70;;
8540;SDS011;4308;51.294;6.590;2023-06-05T07:31:53;15.97;;;8.00;;
8540;SDS011;4308;51.294;6.590;2023-06-05T07:34:22;14.33;;;7.93;;
8540;SDS011;4308;51.294;6.590;2023-06-05T07:36:50;14.47;;;8.83;;
8540;SDS011;4308;51.294;6.590;2023-06-05T07:39:21;18.67;;;8.67;;
8540;SDS011;4308;51.294;6.590;2023-06-05T07:41:48;16.00;;;8.40;;
8540;SDS011;4308;51.294;6.590;2023-06-05T07:44:17;14.63;;;7.73;;
8540;SDS011;4308;51.294;6.590;2023-06-05T07:46:46;13.87;;;8.10;;
8540;SDS011;4308;51.294;6.590;2023-06-05T07:49:14;13.17;;;6.93;;
8540;SDS011;4308;51.294;6.590;2023-06-05T07:51:42;12.43;;;6.63;;
8540;SDS011;4308;51.294;6.590;2023-06-05T07:54:10;15.87;;;6.80;;
8540;SDS011;4308;51.294;6.590;2023-06-05T07:56:38;11.80;;;6.33;;
8540;SDS011;4308;51.294;6.590;2023-06-05T07:59:06;10.17;;;5.70;;
8540;SDS011;4308;51.294;6.590;2023-06-05T08:01:35;10.03;;;5.80;;
8540;SDS011;4308;51.294;6.590;2023-06-05T08:04:03;9.87;;;5.23;;
8540;SDS011;4308;51.294;6.590;2023-06-05T08:06:31;15.73;;;5.97;;
8540;SDS011;4308;51.294;6.590;2023-06-05T08:08:59;9.83;;;5.07;;
8540;SDS011;4308;51.294;6.590;2023-06-05T08:11:26;11.40;;;5.70;;
8540;SDS011;4308;51.294;6.590;2023-06-05T08:13:54;11.67;;;6.07;;
8540;SDS011;4308;51.294;6.590;2023-06-05T08:16:22;9.93;;;5.23;;
8540;SDS011;4308;51.294;6.590;2023-06-05T08:18:50;10.10;;;6.20;;
8540;SDS011;4308;51.294;6.590;2023-06-05T08:21:17;7.73;;;4.33;;
8540;SDS011;4308;51.294;6.590;2023-06-05T08:23:45;9.33;;;5.27;;
8540;SDS011;4308;51.294;6.590;2023-06-05T08:26:12;7.90;;;4.43;;
8540;SDS011;4308;51.294;6.590;2023-06-05T08:28:40;10.47;;;5.83;;
8540;SDS011;4308;51.294;6.590;2023-06-05T08:31:08;10.00;;;4.57;;
8540;SDS011;4308;51.294;6.590;2023-06-05T08:33:37;9.20;;;5.07;;
8540;SDS011;4308;51.294;6.590;2023-06-05T08:36:05;9.57;;;5.30;;
8540;SDS011;4308;51.294;6.590;2023-06-05T08:38:33;11.37;;;4.70;;
8540;SDS011;4308;51.294;6.590;2023-06-05T08:41:04;9.63;;;5.63;;
8540;SDS011;4308;51.294;6.590;2023-06-05T08:43:32;11.73;;;5.87;;
8540;SDS011;4308;51.294;6.590;2023-06-05T08:46:00;12.50;;;5.70;;
8540;SDS011;4308;51.294;6.590;2023-06-05T08:48:28;9.63;;;5.27;;
8540;SDS011;4308;51.294;6.590;2023-06-05T08:50:59;10.10;;;5.27;;
8540;SDS011;4308;51.294;6.590;2023-06-05T08:53:29;10.03;;;5.40;;
8540;SDS011;4308;51.294;6.590;2023-06-05T08:55:59;7.60;;;5.00;;
8540;SDS011;4308;51.294;6.590;2023-06-05T08:58:26;7.60;;;4.83;;
8540;SDS011;4308;51.294;6.590;2023-06-05T09:00:54;10.97;;;5.53;;
8540;SDS011;4308;51.294;6.590;2023-06-05T09:03:22;20.30;;;5.90;;
8540;SDS011;4308;51.294;6.590;2023-06-05T09:05:49;10.87;;;5.30;;
8540;SDS011;4308;51.294;6.590;2023-06-05T09:08:28;10.40;;;5.33;;
8540;SDS011;4308;51.294;6.590;2023-06-05T09:11:18;12.90;;;5.27;;
8540;SDS011;4308;51.294;6.590;2023-06-05T09:13:46;10.57;;;5.90;;
8540;SDS011;4308;51.294;6.590;2023-06-05T09:16:14;10.47;;;5.70;;
8540;SDS011;4308;51.294;6.590;2023-06-05T09:18:52;12.87;;;5.90;;
8540;SDS011;4308;51.294;6.590;2023-06-05T09:21:20;13.00;;;6.37;;
8540;SDS011;4308;51.294;6.590;2023-06-05T09:23:47;13.07;;;5.47;;
8540;SDS011;4308;51.294;6.590;2023-06-05T09:26:15;12.83;;;6.10;;
8540;SDS011;4308;51.294;6.590;2023-06-05T09:28:53;11.00;;;5.90;;
8540;SDS011;4308;51.294;6.590;2023-06-05T09:31:21;11.40;;;5.37;;
8540;SDS011;4308;51.294;6.590;2023-06-05T09:33:54;7.60;;;4.87;;
8540;SDS011;4308;51.294;6.590;2023-06-05T09:36:23;12.07;;;5.17;;
8540;SDS011;4308;51.294;6.590;2023-06-05T09:38:51;12.80;;;4.70;;
8540;SDS011;4308;51.294;6.590;2023-06-05T09:41:18;12.07;;;5.00;;
8540;SDS011;4308;51.294;6.590;2023-06-05T09:43:46;8.90;;;4.50;;
8540;SDS011;4308;51.294;6.590;2023-06-05T09:46:17;11.03;;;5.00;;
8540;SDS011;4308;51.294;6.590;2023-06-05T09:48:50;10.13;;;4.53;;
8540;SDS011;4308;51.294;6.590;2023-06-05T09:51:19;13.03;;;4.70;;
8540;SDS011;4308;51.294;6.590;2023-06-05T09:53:48;8.73;;;4.40;;
8540;SDS011;4308;51.294;6.590;2023-06-05T09:56:16;7.07;;;4.00;;
8540;SDS011;4308;51.294;6.590;2023-06-05T10:01:15;10.73;;;4.40;;
8540;SDS011;4308;51.294;6.590;2023-06-05T10:03:44;7.77;;;4.37;;
8540;SDS011;4308;51.294;6.590;2023-06-05T10:06:15;9.00;;;3.63;;
8540;SDS011;4308;51.294;6.590;2023-06-05T10:08:47;8.20;;;3.30;;
8540;SDS011;4308;51.294;6.590;2023-06-05T10:11:15;7.17;;;4.20;;
8540;SDS011;4308;51.294;6.590;2023-06-05T10:13:43;7.70;;;2.90;;
8540;SDS011;4308;51.294;6.590;2023-06-05T10:16:11;10.10;;;3.97;;
8540;SDS011;4308;51.294;6.590;2023-06-05T10:18:51;8.63;;;4.27;;
8540;SDS011;4308;51.294;6.590;2023-06-05T10:21:19;8.57;;;4.10;;
8540;SDS011;4308;51.294;6.590;2023-06-05T10:23:52;6.17;;;2.70;;
8540;SDS011;4308;51.294;6.590;2023-06-05T10:31:53;10.47;;;4.00;;
8540;SDS011;4308;51.294;6.590;2023-06-05T10:37:04;11.43;;;4.53;;
8540;SDS011;4308;51.294;6.590;2023-06-05T10:39:35;14.43;;;5.27;;
8540;SDS011;4308;51.294;6.590;2023-06-05T10:42:03;9.13;;;4.60;;
8540;SDS011;4308;51.294;6.590;2023-06-05T10:44:43;6.80;;;3.40;;
8540;SDS011;4308;51.294;6.590;2023-06-05T10:52:45;7.60;;;3.37;;
8540;SDS011;4308;51.294;6.590;2023-06-05T10:55:13;8.23;;;3.50;;
8540;SDS011;4308;51.294;6.590;2023-06-05T11:00:27;3.30;;;2.20;;
8540;SDS011;4308;51.294;6.590;2023-06-05T11:02:55;7.73;;;3.47;;
8540;SDS011;4308;51.294;6.590;2023-06-05T11:05:27;5.20;;;3.17;;
8540;SDS011;4308;51.294;6.590;2023-06-05T11:10:37;6.37;;;3.50;;
8540;SDS011;4308;51.294;6.590;2023-06-05T11:13:07;4.27;;;2.87;;
8540;SDS011;4308;51.294;6.590;2023-06-05T11:15:39;10.57;;;3.43;;
8540;SDS011;4308;51.294;6.590;2023-06-05T11:20:53;6.77;;;3.37;;
8540;SDS011;4308;51.294;6.590;2023-06-05T11:23:20;4.70;;;2.50;;
8540;SDS011;4308;51.294;6.590;2023-06-05T11:25:48;6.23;;;3.20;;
8540;SDS011;4308;51.294;6.590;2023-06-05T11:28:36;8.83;;;2.80;;
8540;SDS011;4308;51.294;6.590;2023-06-05T11:31:03;8.93;;;3.43;;
8540;SDS011;4308;51.294;6.590;2023-06-05T11:33:31;6.70;;;2.87;;
8540;SDS011;4308;51.294;6.590;2023-06-05T11:36:00;7.53;;;2.87;;
8540;SDS011;4308;51.294;6.590;2023-06-05T11:38:28;8.07;;;2.83;;
8540;SDS011;4308;51.294;6.590;2023-06-05T11:40:55;2.03;;;1.93;;
8540;SDS011;4308;51.294;6.590;2023-06-05T11:43:23;5.20;;;2.57;;
8540;SDS011;4308;51.294;6.590;2023-06-05T11:45:51;3.57;;;2.40;;
8540;SDS011;4308;51.294;6.590;2023-06-05T11:48:19;2.57;;;2.10;;
8540;SDS011;4308;51.294;6.590;2023-06-05T11:53:24;5.07;;;2.77;;
8540;SDS011;4308;51.294;6.590;2023-06-05T11:55:52;7.43;;;2.73;;
8540;SDS011;4308;51.294;6.590;2023-06-05T12:00:51;3.80;;;2.50;;
8540;SDS011;4308;51.294;6.590;2023-06-05T12:03:19;4.63;;;2.40;;
8540;SDS011;4308;51.294;6.590;2023-06-05T12:05:47;5.23;;;3.10;;
8540;SDS011;4308;51.294;6.590;2023-06-05T12:08:21;6.53;;;2.80;;
8540;SDS011;4308;51.294;6.590;2023-06-05T12:10:49;4.10;;;2.90;;
8540;SDS011;4308;51.294;6.590;2023-06-05T12:13:17;4.27;;;2.60;;
8540;SDS011;4308;51.294;6.590;2023-06-05T12:15:57;4.10;;;3.40;;
8540;SDS011;4308;51.294;6.590;2023-06-05T12:18:34;4.93;;;2.80;;
8540;SDS011;4308;51.294;6.590;2023-06-05T12:21:02;5.20;;;3.20;;
8540;SDS011;4308;51.294;6.590;2023-06-05T12:23:30;4.30;;;3.13;;
8540;SDS011;4308;51.294;6.590;2023-06-05T12:26:00;5.77;;;3.10;;
8540;SDS011;4308;51.294;6.590;2023-06-05T12:28:29;4.67;;;3.17;;
8540;SDS011;4308;51.294;6.590;2023-06-05T12:30:57;3.63;;;2.40;;
8540;SDS011;4308;51.294;6.590;2023-06-05T12:33:25;4.40;;;3.53;;
8540;SDS011;4308;51.294;6.590;2023-06-05T12:36:05;7.10;;;3.50;;
8540;SDS011;4308;51.294;6.590;2023-06-05T12:38:37;4.10;;;3.30;;
8540;SDS011;4308;51.294;6.590;2023-06-05T12:41:04;5.63;;;3.17;;
8540;SDS011;4308;51.294;6.590;2023-06-05T12:43:32;4.43;;;2.60;;
8540;SDS011;4308;51.294;6.590;2023-06-05T12:46:00;5.33;;;2.27;;
8540;SDS011;4308;51.294;6.590;2023-06-05T12:48:28;5.30;;;3.20;;
8540;SDS011;4308;51.294;6.590;2023-06-05T12:50:55;3.27;;;2.40;;
8540;SDS011;4308;51.294;6.590;2023-06-05T12:53:23;4.57;;;2.67;;
8540;SDS011;4308;51.294;6.590;2023-06-05T12:55:51;4.30;;;3.00;;
8540;SDS011;4308;51.294;6.590;2023-06-05T12:58:18;3.90;;;2.37;;
8540;SDS011;4308;51.294;6.590;2023-06-05T13:00:46;3.67;;;3.00;;
8540;SDS011;4308;51.294;6.590;2023-06-05T13:03:13;5.00;;;2.80;;
8540;SDS011;4308;51.294;6.590;2023-06-05T13:05:41;5.60;;;3.27;;
8540;SDS011;4308;51.294;6.590;2023-06-05T13:08:09;4.90;;;2.80;;
8540;SDS011;4308;51.294;6.590;2023-06-05T13:10:36;5.63;;;2.87;;
8540;SDS011;4308;51.294;6.590;2023-06-05T13:13:04;3.77;;;2.73;;
8540;SDS011;4308;51.294;6.590;2023-06-05T13:15:32;3.87;;;2.90;;
8540;SDS011;4308;51.294;6.590;2023-06-05T13:17:59;6.43;;;3.60;;
8540;SDS011;4308;51.294;6.590;2023-06-05T13:20:27;4.03;;;2.53;;
8540;SDS011;4308;51.294;6.590;2023-06-05T13:22:54;5.03;;;2.77;;
8540;SDS011;4308;51.294;6.590;2023-06-05T13:25:22;7.80;;;3.60;;
8540;SDS011;4308;51.294;6.590;2023-06-05T13:27:50;7.67;;;3.30;;
8540;SDS011;4308;51.294;6.590;2023-06-05T13:30:17;5.00;;;2.93;;
8540;SDS011;4308;51.294;6.590;2023-06-05T13:32:45;3.93;;;2.83;;
8540;SDS011;4308;51.294;6.590;2023-06-05T13:35:13;3.87;;;3.20;;
8540;SDS011;4308;51.294;6.590;2023-06-05T13:37:40;6.10;;;2.80;;
8540;SDS011;4308;51.294;6.590;2023-06-05T13:40:08;4.27;;;2.90;;
8540;SDS011;4308;51.294;6.590;2023-06-05T13:42:36;4.73;;;2.63;;
8540;SDS011;4308;51.294;6.590;2023-06-05T13:45:04;5.03;;;2.67;;
8540;SDS011;4308;51.294;6.590;2023-06-05T13:47:31;5.97;;;3.03;;
8540;SDS011;4308;51.294;6.590;2023-06-05T13:49:59;6.00;;;2.83;;
8540;SDS011;4308;51.294;6.590;2023-06-05T13:52:26;4.80;;;2.10;;
8540;SDS011;4308;51.294;6.590;2023-06-05T13:54:54;6.17;;;3.10;;
8540;SDS011;4308;51.294;6.590;2023-06-05T13:57:22;4.50;;;2.40;;
8540;SDS011;4308;51.294;6.590;2023-06-05T13:59:49;6.60;;;2.70;;
8540;SDS011;4308;51.294;6.590;2023-06-05T14:02:17;6.53;;;3.17;;
8540;SDS011;4308;51.294;6.590;2023-06-05T14:04:44;4.00;;;3.07;;
8540;SDS011;4308;51.294;6.590;2023-06-05T14:07:12;4.07;;;3.07;;
8540;SDS011;4308;51.294;6.590;2023-06-05T14:09:40;6.60;;;3.10;;
8540;SDS011;4308;51.294;6.590;2023-06-05T14:12:07;3.97;;;2.50;;
8540;SDS011;4308;51.294;6.590;2023-06-05T14:14:35;4.57;;;3.50;;
8540;SDS011;4308;51.294;6.590;2023-06-05T14:17:03;4.13;;;3.00;;
8540;SDS011;4308;51.294;6.590;2023-06-05T14:19:30;5.00;;;3.60;;
8540;SDS011;4308;51.294;6.590;2023-06-05T14:21:58;6.40;;;3.30;;
8540;SDS011;4308;51.294;6.590;2023-06-05T14:24:26;5.17;;;3.20;;
8540;SDS011;4308;51.294;6.590;2023-06-05T14:26:53;4.07;;;2.93;;
8540;SDS011;4308;51.294;6.590;2023-06-05T14:29:21;7.53;;;3.53;;
8540;SDS011;4308;51.294;6.590;2023-06-05T14:31:49;4.87;;;3.10;;
8540;SDS011;4308;51.294;6.590;2023-06-05T14:34:16;5.47;;;3.10;;
8540;SDS011;4308;51.294;6.590;2023-06-05T14:36:44;5.40;;;2.20;;
8540;SDS011;4308;51.294;6.590;2023-06-05T14:39:12;5.17;;;3.10;;
8540;SDS011;4308;51.294;6.590;2023-06-05T14:41:44;5.83;;;3.20;;
8540;SDS011;4308;51.294;6.590;2023-06-05T14:44:12;5.33;;;3.27;;
8540;SDS011;4308;51.294;6.590;2023-06-05T14:46:49;5.00;;;2.70;;
8540;SDS011;4308;51.294;6.590;2023-06-05T14:49:17;7.00;;;3.00;;
8540;SDS011;4308;51.294;6.590;2023-06-05T14:51:44;4.30;;;2.93;;
8540;SDS011;4308;51.294;6.590;2023-06-05T14:54:12;4.07;;;3.47;;
8540;SDS011;4308;51.294;6.590;2023-06-05T14:56:40;7.17;;;3.90;;
8540;SDS011;4308;51.294;6.590;2023-06-05T14:59:07;8.53;;;3.50;;
8540;SDS011;4308;51.294;6.590;2023-06-05T15:01:52;5.30;;;3.57;;
8540;SDS011;4308;51.294;6.590;2023-06-05T15:04:20;3.50;;;3.17;;
8540;SDS011;4308;51.294;6.590;2023-06-05T15:06:48;5.07;;;3.47;;
8540;SDS011;4308;51.294;6.590;2023-06-05T15:09:15;4.10;;;3.50;;
8540;SDS011;4308;51.294;6.590;2023-06-05T15:11:43;8.13;;;3.20;;
8540;SDS011;4308;51.294;6.590;2023-06-05T15:14:10;4.77;;;2.97;;
8540;SDS011;4308;51.294;6.590;2023-06-05T15:16:38;4.00;;;3.20;;
8540;SDS011;4308;51.294;6.590;2023-06-05T15:19:09;4.90;;;3.27;;
8540;SDS011;4308;51.294;6.590;2023-06-05T15:21:36;3.60;;;3.00;;
8540;SDS011;4308;51.294;6.590;2023-06-05T15:24:04;7.27;;;2.80;;
8540;SDS011;4308;51.294;6.590;2023-06-05T15:26:33;5.67;;;3.43;;
8540;SDS011;4308;51.294;6.590;2023-06-05T15:29:00;4.10;;;3.10;;
8540;SDS011;4308;51.294;6.590;2023-06-05T15:31:28;7.93;;;3.47;;
8540;SDS011;4308;51.294;6.590;2023-06-05T15:33:56;7.07;;;2.93;;
8540;SDS011;4308;51.294;6.590;2023-06-05T15:36:24;6.83;;;3.57;;
8540;SDS011;4308;51.294;6.590;2023-06-05T15:38:51;10.23;;;4.10;;
8540;SDS011;4308;51.294;6.590;2023-06-05T15:41:19;6.83;;;3.87;;
8540;SDS011;4308;51.294;6.590;2023-06-05T15:43:47;5.37;;;3.03;;
8540;SDS011;4308;51.294;6.590;2023-06-05T15:46:14;4.67;;;3.30;;
8540;SDS011;4308;51.294;6.590;2023-06-05T15:48:42;4.13;;;3.03;;